Hauptseite
METAR-TAF:

METAR-TAF

Flughäfen :

Aeroflex-Andover Airport

Andover, New Jersey, Vereinigte Staaten

Breite: 41-00-32N, Länge: 074-44-12W, Höhe: 177 m

Beobachtung

Neuester Wetterbericht von vor 20 Minuten, um 07:54 UTC
Wind 4 kt aus Süd
Temperatur 9°C
Luftfeuchtigkeit 87%
Luftdruck 1001 hPa

METAR: K12N 090754Z AUTO 19004KT 09/07 A2956 RMK AO1 SLP007 T00940072

Zeit: 04:14 (08:14 UTC)


TAF: fehlend

Wetterbeobachtungen und Prognosen von mehr als 4000 Flughäfen (METAR und TAF Bericht).

Die verfügbaren Stationen werden durch gelbe und rote Markierungen auf der Karte dargestellt.

Führen Sie die Maus auf sie, um den Namen der Station zu sehen.

Darauf klicken, um die Beobachtung von Wetterbeobachtungen und Prognosen zu sehen.

Um die Karte zu ändern : klicken Sie auf den grünen Tasten mit einem schwarzen Kreuz Zum Vergrößern, auf den grünen Button mit einem Gedankenstrich zu verkleinern, oder auf die grünen Pfeile für benachbarte Karten.


METAR-TAF: